sensor_id;sensor_type;location;lat;lon;timestamp;P1;durP1;ratioP1;P2;durP2;ratioP2
17763;SDS011;22245;52.832;13.816;2023-05-07T00:03:02;13.67;;;8.77;;
17763;SDS011;22245;52.832;13.816;2023-05-07T00:06:25;12.80;;;9.13;;
17763;SDS011;22245;52.832;13.816;2023-05-07T00:09:48;11.43;;;8.73;;
17763;SDS011;22245;52.832;13.816;2023-05-07T00:13:10;11.55;;;8.75;;
17763;SDS011;22245;52.832;13.816;2023-05-07T00:16:33;13.07;;;9.07;;
17763;SDS011;22245;52.832;13.816;2023-05-07T00:19:55;12.30;;;8.63;;
17763;SDS011;22245;52.832;13.816;2023-05-07T00:23:17;14.23;;;9.30;;
17763;SDS011;22245;52.832;13.816;2023-05-07T00:26:38;12.40;;;8.50;;
17763;SDS011;22245;52.832;13.816;2023-05-07T00:30:00;12.23;;;8.38;;
17763;SDS011;22245;52.832;13.816;2023-05-07T00:33:22;12.57;;;8.70;;
17763;SDS011;22245;52.832;13.816;2023-05-07T00:36:43;15.50;;;8.95;;
17763;SDS011;22245;52.832;13.816;2023-05-07T00:40:06;12.87;;;8.67;;
17763;SDS011;22245;52.832;13.816;2023-05-07T00:43:28;14.48;;;8.65;;
17763;SDS011;22245;52.832;13.816;2023-05-07T00:46:50;12.20;;;8.70;;
17763;SDS011;22245;52.832;13.816;2023-05-07T00:50:13;15.07;;;8.80;;
17763;SDS011;22245;52.832;13.816;2023-05-07T00:53:36;18.33;;;9.10;;
17763;SDS011;22245;52.832;13.816;2023-05-07T00:56:58;14.03;;;9.23;;
17763;SDS011;22245;52.832;13.816;2023-05-07T01:00:20;11.80;;;8.18;;
17763;SDS011;22245;52.832;13.816;2023-05-07T01:03:42;14.13;;;8.77;;
17763;SDS011;22245;52.832;13.816;2023-05-07T01:07:05;15.47;;;9.13;;
17763;SDS011;22245;52.832;13.816;2023-05-07T01:10:27;13.43;;;9.30;;
17763;SDS011;22245;52.832;13.816;2023-05-07T01:13:50;13.80;;;8.98;;
17763;SDS011;22245;52.832;13.816;2023-05-07T01:17:12;13.65;;;9.27;;
17763;SDS011;22245;52.832;13.816;2023-05-07T01:20:35;15.30;;;9.70;;
17763;SDS011;22245;52.832;13.816;2023-05-07T01:23:58;12.45;;;8.70;;
17763;SDS011;22245;52.832;13.816;2023-05-07T01:27:21;14.33;;;9.07;;
17763;SDS011;22245;52.832;13.816;2023-05-07T01:30:44;13.63;;;8.73;;
17763;SDS011;22245;52.832;13.816;2023-05-07T01:34:19;17.07;;;9.00;;
17763;SDS011;22245;52.832;13.816;2023-05-07T01:37:42;12.73;;;9.07;;
17763;SDS011;22245;52.832;13.816;2023-05-07T01:41:06;12.90;;;8.90;;
17763;SDS011;22245;52.832;13.816;2023-05-07T01:44:28;16.17;;;9.20;;
17763;SDS011;22245;52.832;13.816;2023-05-07T01:47:50;13.80;;;8.63;;
17763;SDS011;22245;52.832;13.816;2023-05-07T01:51:13;15.00;;;9.77;;
17763;SDS011;22245;52.832;13.816;2023-05-07T01:54:35;12.93;;;8.93;;
17763;SDS011;22245;52.832;13.816;2023-05-07T01:57:58;11.57;;;8.93;;
17763;SDS011;22245;52.832;13.816;2023-05-07T02:01:20;13.07;;;8.80;;
17763;SDS011;22245;52.832;13.816;2023-05-07T02:04:42;13.37;;;8.63;;
17763;SDS011;22245;52.832;13.816;2023-05-07T02:08:04;12.53;;;8.70;;
17763;SDS011;22245;52.832;13.816;2023-05-07T02:11:26;12.60;;;8.83;;
17763;SDS011;22245;52.832;13.816;2023-05-07T02:14:49;12.80;;;8.87;;
17763;SDS011;22245;52.832;13.816;2023-05-07T02:18:11;14.23;;;8.63;;
17763;SDS011;22245;52.832;13.816;2023-05-07T02:21:33;12.90;;;8.67;;
17763;SDS011;22245;52.832;13.816;2023-05-07T02:24:54;11.07;;;8.27;;
17763;SDS011;22245;52.832;13.816;2023-05-07T02:28:16;11.57;;;8.67;;
17763;SDS011;22245;52.832;13.816;2023-05-07T02:31:53;13.30;;;8.90;;
17763;SDS011;22245;52.832;13.816;2023-05-07T02:35:15;13.60;;;8.17;;
17763;SDS011;22245;52.832;13.816;2023-05-07T02:38:37;13.03;;;8.43;;
17763;SDS011;22245;52.832;13.816;2023-05-07T02:41:59;14.93;;;8.87;;
17763;SDS011;22245;52.832;13.816;2023-05-07T02:45:21;12.83;;;8.60;;
17763;SDS011;22245;52.832;13.816;2023-05-07T02:48:46;13.30;;;8.30;;
17763;SDS011;22245;52.832;13.816;2023-05-07T02:52:08;14.30;;;8.67;;
17763;SDS011;22245;52.832;13.816;2023-05-07T02:55:30;13.90;;;8.47;;
17763;SDS011;22245;52.832;13.816;2023-05-07T02:58:52;12.70;;;8.23;;
17763;SDS011;22245;52.832;13.816;2023-05-07T03:02:15;10.83;;;7.77;;
17763;SDS011;22245;52.832;13.816;2023-05-07T03:05:38;17.50;;;8.07;;
17763;SDS011;22245;52.832;13.816;2023-05-07T03:09:00;10.67;;;7.70;;
17763;SDS011;22245;52.832;13.816;2023-05-07T03:12:23;12.97;;;7.73;;
17763;SDS011;22245;52.832;13.816;2023-05-07T03:15:44;14.87;;;7.50;;
17763;SDS011;22245;52.832;13.816;2023-05-07T03:19:06;11.87;;;7.27;;
17763;SDS011;22245;52.832;13.816;2023-05-07T03:22:30;12.47;;;7.40;;
17763;SDS011;22245;52.832;13.816;2023-05-07T03:25:51;10.87;;;7.67;;
17763;SDS011;22245;52.832;13.816;2023-05-07T03:29:14;9.57;;;7.00;;
17763;SDS011;22245;52.832;13.816;2023-05-07T03:32:36;11.57;;;7.47;;
17763;SDS011;22245;52.832;13.816;2023-05-07T03:36:01;12.60;;;6.83;;
17763;SDS011;22245;52.832;13.816;2023-05-07T03:39:24;9.50;;;6.97;;
17763;SDS011;22245;52.832;13.816;2023-05-07T03:42:46;11.20;;;7.70;;
17763;SDS011;22245;52.832;13.816;2023-05-07T03:46:09;12.70;;;7.40;;
17763;SDS011;22245;52.832;13.816;2023-05-07T03:49:31;11.30;;;6.90;;
17763;SDS011;22245;52.832;13.816;2023-05-07T03:52:53;10.00;;;6.60;;
17763;SDS011;22245;52.832;13.816;2023-05-07T03:56:17;16.23;;;6.70;;
17763;SDS011;22245;52.832;13.816;2023-05-07T03:59:40;11.67;;;7.40;;
17763;SDS011;22245;52.832;13.816;2023-05-07T04:03:02;10.70;;;6.90;;
17763;SDS011;22245;52.832;13.816;2023-05-07T04:06:24;11.30;;;6.63;;
17763;SDS011;22245;52.832;13.816;2023-05-07T04:09:46;11.33;;;6.80;;
17763;SDS011;22245;52.832;13.816;2023-05-07T04:13:09;10.97;;;7.00;;
17763;SDS011;22245;52.832;13.816;2023-05-07T04:16:32;13.07;;;7.20;;
17763;SDS011;22245;52.832;13.816;2023-05-07T04:19:53;10.13;;;6.70;;
17763;SDS011;22245;52.832;13.816;2023-05-07T04:23:15;9.00;;;7.00;;
17763;SDS011;22245;52.832;13.816;2023-05-07T04:26:37;11.13;;;7.27;;
17763;SDS011;22245;52.832;13.816;2023-05-07T04:30:00;8.93;;;6.63;;
17763;SDS011;22245;52.832;13.816;2023-05-07T04:33:27;11.30;;;7.20;;
17763;SDS011;22245;52.832;13.816;2023-05-07T04:36:50;10.33;;;6.87;;
17763;SDS011;22245;52.832;13.816;2023-05-07T04:40:12;9.33;;;6.57;;
17763;SDS011;22245;52.832;13.816;2023-05-07T04:43:35;13.30;;;6.90;;
17763;SDS011;22245;52.832;13.816;2023-05-07T04:46:58;12.80;;;7.37;;
17763;SDS011;22245;52.832;13.816;2023-05-07T04:50:20;10.43;;;6.37;;
17763;SDS011;22245;52.832;13.816;2023-05-07T04:53:45;11.40;;;7.20;;
17763;SDS011;22245;52.832;13.816;2023-05-07T04:57:07;11.27;;;6.77;;
17763;SDS011;22245;52.832;13.816;2023-05-07T05:00:29;10.57;;;6.77;;
17763;SDS011;22245;52.832;13.816;2023-05-07T05:03:54;11.07;;;6.70;;
17763;SDS011;22245;52.832;13.816;2023-05-07T05:07:15;11.87;;;6.63;;
17763;SDS011;22245;52.832;13.816;2023-05-07T05:10:37;9.67;;;6.93;;
17763;SDS011;22245;52.832;13.816;2023-05-07T05:13:59;10.70;;;6.87;;
17763;SDS011;22245;52.832;13.816;2023-05-07T05:17:22;10.50;;;6.03;;
17763;SDS011;22245;52.832;13.816;2023-05-07T05:20:45;12.10;;;7.00;;
17763;SDS011;22245;52.832;13.816;2023-05-07T05:24:07;12.33;;;7.37;;
17763;SDS011;22245;52.832;13.816;2023-05-07T05:27:29;11.10;;;7.00;;
17763;SDS011;22245;52.832;13.816;2023-05-07T05:30:51;10.53;;;7.30;;
17763;SDS011;22245;52.832;13.816;2023-05-07T05:34:14;10.97;;;7.07;;
17763;SDS011;22245;52.832;13.816;2023-05-07T05:37:38;11.33;;;7.47;;
17763;SDS011;22245;52.832;13.816;2023-05-07T05:41:00;12.33;;;7.40;;
17763;SDS011;22245;52.832;13.816;2023-05-07T05:44:22;12.10;;;7.60;;
17763;SDS011;22245;52.832;13.816;2023-05-07T05:47:45;13.33;;;7.63;;
17763;SDS011;22245;52.832;13.816;2023-05-07T05:51:07;17.77;;;8.27;;
17763;SDS011;22245;52.832;13.816;2023-05-07T05:54:30;13.73;;;7.80;;
17763;SDS011;22245;52.832;13.816;2023-05-07T05:57:52;16.93;;;8.53;;
17763;SDS011;22245;52.832;13.816;2023-05-07T06:01:13;13.63;;;8.73;;
17763;SDS011;22245;52.832;13.816;2023-05-07T06:04:35;10.47;;;7.90;;
17763;SDS011;22245;52.832;13.816;2023-05-07T06:07:57;13.53;;;8.57;;
17763;SDS011;22245;52.832;13.816;2023-05-07T06:11:24;12.83;;;7.43;;
17763;SDS011;22245;52.832;13.816;2023-05-07T06:14:46;13.43;;;7.50;;
17763;SDS011;22245;52.832;13.816;2023-05-07T06:18:09;12.60;;;7.10;;
17763;SDS011;22245;52.832;13.816;2023-05-07T06:21:31;9.70;;;6.63;;
17763;SDS011;22245;52.832;13.816;2023-05-07T06:24:53;12.77;;;7.20;;
17763;SDS011;22245;52.832;13.816;2023-05-07T06:28:16;10.60;;;6.93;;
17763;SDS011;22245;52.832;13.816;2023-05-07T06:31:39;11.20;;;6.80;;
17763;SDS011;22245;52.832;13.816;2023-05-07T06:35:02;10.57;;;6.70;;
17763;SDS011;22245;52.832;13.816;2023-05-07T06:38:25;10.85;;;7.45;;
17763;SDS011;22245;52.832;13.816;2023-05-07T06:41:47;11.13;;;6.73;;
17763;SDS011;22245;52.832;13.816;2023-05-07T06:45:18;9.37;;;6.37;;
17763;SDS011;22245;52.832;13.816;2023-05-07T06:48:40;13.32;;;6.10;;
17763;SDS011;22245;52.832;13.816;2023-05-07T06:52:02;8.80;;;5.78;;
17763;SDS011;22245;52.832;13.816;2023-05-07T06:55:24;8.55;;;6.05;;
17763;SDS011;22245;52.832;13.816;2023-05-07T06:58:47;8.57;;;5.82;;
17763;SDS011;22245;52.832;13.816;2023-05-07T07:02:11;9.43;;;5.93;;
17763;SDS011;22245;52.832;13.816;2023-05-07T07:05:32;9.10;;;6.22;;
17763;SDS011;22245;52.832;13.816;2023-05-07T07:08:56;11.57;;;6.63;;
17763;SDS011;22245;52.832;13.816;2023-05-07T07:12:17;8.48;;;5.82;;
17763;SDS011;22245;52.832;13.816;2023-05-07T07:15:39;8.40;;;5.57;;
17763;SDS011;22245;52.832;13.816;2023-05-07T07:19:02;8.13;;;4.75;;
17763;SDS011;22245;52.832;13.816;2023-05-07T07:22:24;6.80;;;4.90;;
17763;SDS011;22245;52.832;13.816;2023-05-07T07:25:46;8.18;;;4.50;;
17763;SDS011;22245;52.832;13.816;2023-05-07T07:29:08;7.93;;;4.93;;
17763;SDS011;22245;52.832;13.816;2023-05-07T07:32:31;4.97;;;3.72;;
17763;SDS011;22245;52.832;13.816;2023-05-07T07:35:55;6.38;;;4.10;;
17763;SDS011;22245;52.832;13.816;2023-05-07T07:39:16;7.35;;;4.30;;
17763;SDS011;22245;52.832;13.816;2023-05-07T07:42:41;8.90;;;4.20;;
17763;SDS011;22245;52.832;13.816;2023-05-07T07:46:03;6.65;;;4.07;;
17763;SDS011;22245;52.832;13.816;2023-05-07T07:49:26;6.57;;;4.10;;
17763;SDS011;22245;52.832;13.816;2023-05-07T07:52:50;7.28;;;4.25;;
17763;SDS011;22245;52.832;13.816;2023-05-07T07:56:12;7.22;;;4.68;;
17763;SDS011;22245;52.832;13.816;2023-05-07T07:59:35;7.13;;;4.45;;
17763;SDS011;22245;52.832;13.816;2023-05-07T08:02:57;8.43;;;4.00;;
17763;SDS011;22245;52.832;13.816;2023-05-07T08:06:24;9.93;;;5.90;;
17763;SDS011;22245;52.832;13.816;2023-05-07T08:09:48;6.50;;;3.33;;
17763;SDS011;22245;52.832;13.816;2023-05-07T08:13:13;4.95;;;3.35;;
17763;SDS011;22245;52.832;13.816;2023-05-07T08:16:35;4.88;;;3.80;;
17763;SDS011;22245;52.832;13.816;2023-05-07T08:19:57;9.57;;;5.85;;
17763;SDS011;22245;52.832;13.816;2023-05-07T08:23:19;9.68;;;3.67;;
17763;SDS011;22245;52.832;13.816;2023-05-07T08:26:43;11.77;;;4.57;;
17763;SDS011;22245;52.832;13.816;2023-05-07T08:30:06;12.88;;;4.28;;
17763;SDS011;22245;52.832;13.816;2023-05-07T08:33:30;6.57;;;3.80;;
17763;SDS011;22245;52.832;13.816;2023-05-07T08:36:51;8.18;;;4.10;;
17763;SDS011;22245;52.832;13.816;2023-05-07T08:40:15;11.98;;;4.70;;
17763;SDS011;22245;52.832;13.816;2023-05-07T08:43:40;6.47;;;3.72;;
17763;SDS011;22245;52.832;13.816;2023-05-07T08:47:03;12.38;;;4.30;;
17763;SDS011;22245;52.832;13.816;2023-05-07T08:50:29;11.25;;;5.05;;
17763;SDS011;22245;52.832;13.816;2023-05-07T08:53:51;15.60;;;4.07;;
17763;SDS011;22245;52.832;13.816;2023-05-07T08:57:22;6.47;;;3.50;;
17763;SDS011;22245;52.832;13.816;2023-05-07T09:00:46;7.32;;;3.20;;
17763;SDS011;22245;52.832;13.816;2023-05-07T09:04:09;8.00;;;3.20;;
17763;SDS011;22245;52.832;13.816;2023-05-07T09:07:30;9.23;;;3.90;;
17763;SDS011;22245;52.832;13.816;2023-05-07T09:10:53;9.65;;;3.95;;
17763;SDS011;22245;52.832;13.816;2023-05-07T09:14:15;8.50;;;3.25;;
17763;SDS011;22245;52.832;13.816;2023-05-07T09:17:39;8.35;;;3.72;;
17763;SDS011;22245;52.832;13.816;2023-05-07T09:21:02;6.43;;;3.40;;
17763;SDS011;22245;52.832;13.816;2023-05-07T09:24:24;9.65;;;3.50;;
17763;SDS011;22245;52.832;13.816;2023-05-07T09:27:46;12.98;;;3.40;;
17763;SDS011;22245;52.832;13.816;2023-05-07T09:31:08;6.28;;;3.20;;
17763;SDS011;22245;52.832;13.816;2023-05-07T09:34:31;7.95;;;3.35;;
17763;SDS011;22245;52.832;13.816;2023-05-07T09:37:55;6.35;;;3.58;;
17763;SDS011;22245;52.832;13.816;2023-05-07T09:41:17;5.82;;;3.03;;
17763;SDS011;22245;52.832;13.816;2023-05-07T09:44:50;4.80;;;2.72;;
17763;SDS011;22245;52.832;13.816;2023-05-07T09:48:15;5.25;;;2.85;;
17763;SDS011;22245;52.832;13.816;2023-05-07T09:51:45;6.95;;;3.38;;
17763;SDS011;22245;52.832;13.816;2023-05-07T09:55:11;5.90;;;2.83;;
17763;SDS011;22245;52.832;13.816;2023-05-07T09:58:36;11.20;;;4.07;;
17763;SDS011;22245;52.832;13.816;2023-05-07T10:01:59;4.20;;;2.70;;
17763;SDS011;22245;52.832;13.816;2023-05-07T10:05:28;6.38;;;2.60;;
17763;SDS011;22245;52.832;13.816;2023-05-07T10:08:53;4.78;;;2.67;;
17763;SDS011;22245;52.832;13.816;2023-05-07T10:12:17;5.88;;;2.90;;
17763;SDS011;22245;52.832;13.816;2023-05-07T10:15:41;8.57;;;3.40;;
17763;SDS011;22245;52.832;13.816;2023-05-07T10:19:04;3.97;;;2.42;;
17763;SDS011;22245;52.832;13.816;2023-05-07T10:22:27;5.07;;;3.00;;
17763;SDS011;22245;52.832;13.816;2023-05-07T10:25:52;4.28;;;2.47;;
17763;SDS011;22245;52.832;13.816;2023-05-07T10:29:25;6.93;;;3.00;;
17763;SDS011;22245;52.832;13.816;2023-05-07T10:32:56;4.90;;;2.50;;
17763;SDS011;22245;52.832;13.816;2023-05-07T10:36:26;3.20;;;2.75;;
17763;SDS011;22245;52.832;13.816;2023-05-07T10:39:49;4.85;;;2.80;;
17763;SDS011;22245;52.832;13.816;2023-05-07T10:43:13;3.97;;;2.80;;
17763;SDS011;22245;52.832;13.816;2023-05-07T10:46:39;3.15;;;2.60;;
17763;SDS011;22245;52.832;13.816;2023-05-07T10:50:21;3.95;;;2.92;;
17763;SDS011;22245;52.832;13.816;2023-05-07T10:53:52;4.25;;;2.80;;
17763;SDS011;22245;52.832;13.816;2023-05-07T10:57:54;3.67;;;2.72;;
17763;SDS011;22245;52.832;13.816;2023-05-07T11:01:50;3.13;;;2.47;;
17763;SDS011;22245;52.832;13.816;2023-05-07T11:05:46;4.38;;;2.80;;
17763;SDS011;22245;52.832;13.816;2023-05-07T11:09:24;7.35;;;3.00;;
17763;SDS011;22245;52.832;13.816;2023-05-07T11:13:06;4.85;;;2.72;;
17763;SDS011;22245;52.832;13.816;2023-05-07T11:16:36;5.25;;;2.97;;
17763;SDS011;22245;52.832;13.816;2023-05-07T11:20:17;7.78;;;3.15;;
17763;SDS011;22245;52.832;13.816;2023-05-07T11:23:57;5.90;;;2.78;;
17763;SDS011;22245;52.832;13.816;2023-05-07T11:27:26;3.88;;;3.20;;
17763;SDS011;22245;52.832;13.816;2023-05-07T11:30:49;5.03;;;3.25;;
17763;SDS011;22245;52.832;13.816;2023-05-07T11:34:13;6.13;;;2.70;;
17763;SDS011;22245;52.832;13.816;2023-05-07T11:37:37;4.28;;;2.58;;
17763;SDS011;22245;52.832;13.816;2023-05-07T11:41:01;4.15;;;2.72;;
17763;SDS011;22245;52.832;13.816;2023-05-07T11:44:24;5.30;;;3.15;;
17763;SDS011;22245;52.832;13.816;2023-05-07T11:47:46;6.35;;;2.80;;
17763;SDS011;22245;52.832;13.816;2023-05-07T11:51:08;3.28;;;2.75;;
17763;SDS011;22245;52.832;13.816;2023-05-07T11:54:36;5.85;;;2.78;;
17763;SDS011;22245;52.832;13.816;2023-05-07T11:57:57;4.78;;;2.50;;
17763;SDS011;22245;52.832;13.816;2023-05-07T12:01:20;7.20;;;3.40;;
17763;SDS011;22245;52.832;13.816;2023-05-07T12:04:42;4.03;;;2.60;;
17763;SDS011;22245;52.832;13.816;2023-05-07T12:08:03;4.25;;;2.80;;
17763;SDS011;22245;52.832;13.816;2023-05-07T12:11:26;4.45;;;2.75;;
17763;SDS011;22245;52.832;13.816;2023-05-07T12:14:48;5.00;;;2.80;;
17763;SDS011;22245;52.832;13.816;2023-05-07T12:18:10;4.22;;;2.42;;
17763;SDS011;22245;52.832;13.816;2023-05-07T12:21:33;3.47;;;2.70;;
17763;SDS011;22245;52.832;13.816;2023-05-07T12:24:56;5.60;;;2.58;;
17763;SDS011;22245;52.832;13.816;2023-05-07T12:28:20;4.10;;;2.75;;
17763;SDS011;22245;52.832;13.816;2023-05-07T12:31:42;3.70;;;2.40;;
17763;SDS011;22245;52.832;13.816;2023-05-07T12:35:05;4.03;;;2.70;;
17763;SDS011;22245;52.832;13.816;2023-05-07T12:38:32;5.75;;;2.72;;
17763;SDS011;22245;52.832;13.816;2023-05-07T12:41:56;3.28;;;2.83;;
17763;SDS011;22245;52.832;13.816;2023-05-07T12:45:20;4.95;;;2.75;;
17763;SDS011;22245;52.832;13.816;2023-05-07T12:48:43;4.32;;;2.50;;
17763;SDS011;22245;52.832;13.816;2023-05-07T12:52:06;3.67;;;2.70;;
17763;SDS011;22245;52.832;13.816;2023-05-07T12:55:27;5.78;;;2.70;;
17763;SDS011;22245;52.832;13.816;2023-05-07T12:58:56;3.60;;;2.83;;
17763;SDS011;22245;52.832;13.816;2023-05-07T13:02:20;6.03;;;2.88;;
17763;SDS011;22245;52.832;13.816;2023-05-07T13:05:42;6.60;;;2.90;;
17763;SDS011;22245;52.832;13.816;2023-05-07T13:09:03;5.53;;;2.60;;
17763;SDS011;22245;52.832;13.816;2023-05-07T13:12:25;4.50;;;2.88;;
17763;SDS011;22245;52.832;13.816;2023-05-07T13:15:47;4.22;;;2.40;;
17763;SDS011;22245;52.832;13.816;2023-05-07T13:19:10;7.35;;;2.42;;
17763;SDS011;22245;52.832;13.816;2023-05-07T13:22:32;4.35;;;2.40;;
17763;SDS011;22245;52.832;13.816;2023-05-07T13:25:54;4.72;;;3.05;;
17763;SDS011;22245;52.832;13.816;2023-05-07T13:29:15;4.00;;;2.70;;
17763;SDS011;22245;52.832;13.816;2023-05-07T13:32:37;4.07;;;2.60;;
17763;SDS011;22245;52.832;13.816;2023-05-07T13:36:00;3.47;;;2.30;;
17763;SDS011;22245;52.832;13.816;2023-05-07T13:39:23;2.88;;;2.20;;
17763;SDS011;22245;52.832;13.816;2023-05-07T13:42:45;4.82;;;2.60;;
17763;SDS011;22245;52.832;13.816;2023-05-07T13:46:07;4.10;;;2.13;;
17763;SDS011;22245;52.832;13.816;2023-05-07T13:49:28;5.90;;;2.72;;
17763;SDS011;22245;52.832;13.816;2023-05-07T13:52:52;6.40;;;2.33;;
17763;SDS011;22245;52.832;13.816;2023-05-07T13:56:14;6.50;;;2.38;;
17763;SDS011;22245;52.832;13.816;2023-05-07T13:59:35;5.47;;;2.40;;
17763;SDS011;22245;52.832;13.816;2023-05-07T14:02:56;3.65;;;2.30;;
17763;SDS011;22245;52.832;13.816;2023-05-07T14:06:18;3.97;;;2.33;;
17763;SDS011;22245;52.832;13.816;2023-05-07T14:09:42;7.72;;;2.40;;
17763;SDS011;22245;52.832;13.816;2023-05-07T14:13:05;3.53;;;2.20;;
17763;SDS011;22245;52.832;13.816;2023-05-07T14:16:27;2.90;;;2.20;;
17763;SDS011;22245;52.832;13.816;2023-05-07T14:19:49;4.53;;;1.85;;
17763;SDS011;22245;52.832;13.816;2023-05-07T14:23:10;3.67;;;1.83;;
17763;SDS011;22245;52.832;13.816;2023-05-07T14:26:34;2.67;;;1.63;;
17763;SDS011;22245;52.832;13.816;2023-05-07T14:29:55;4.43;;;1.80;;
17763;SDS011;22245;52.832;13.816;2023-05-07T14:33:16;4.60;;;2.03;;
17763;SDS011;22245;52.832;13.816;2023-05-07T14:36:38;2.90;;;1.70;;
17763;SDS011;22245;52.832;13.816;2023-05-07T14:40:00;2.95;;;1.70;;
17763;SDS011;22245;52.832;13.816;2023-05-07T14:43:25;3.13;;;1.85;;
17763;SDS011;22245;52.832;13.816;2023-05-07T14:46:46;3.35;;;1.58;;
17763;SDS011;22245;52.832;13.816;2023-05-07T14:50:08;1.98;;;1.48;;
17763;SDS011;22245;52.832;13.816;2023-05-07T14:53:30;1.95;;;1.65;;
17763;SDS011;22245;52.832;13.816;2023-05-07T14:56:52;2.22;;;1.52;;
17763;SDS011;22245;52.832;13.816;2023-05-07T15:00:15;1.73;;;1.52;;
17763;SDS011;22245;52.832;13.816;2023-05-07T15:03:37;3.15;;;1.73;;
17763;SDS011;22245;52.832;13.816;2023-05-07T15:06:59;3.13;;;1.60;;
17763;SDS011;22245;52.832;13.816;2023-05-07T15:10:20;2.90;;;1.40;;
17763;SDS011;22245;52.832;13.816;2023-05-07T15:13:42;2.75;;;1.73;;
17763;SDS011;22245;52.832;13.816;2023-05-07T15:17:05;1.65;;;1.23;;
17763;SDS011;22245;52.832;13.816;2023-05-07T15:20:27;1.58;;;1.48;;
17763;SDS011;22245;52.832;13.816;2023-05-07T15:23:48;3.30;;;1.55;;
17763;SDS011;22245;52.832;13.816;2023-05-07T15:27:10;3.13;;;1.65;;
17763;SDS011;22245;52.832;13.816;2023-05-07T15:30:31;1.90;;;1.70;;
17763;SDS011;22245;52.832;13.816;2023-05-07T15:33:54;1.48;;;1.38;;
17763;SDS011;22245;52.832;13.816;2023-05-07T15:37:16;1.70;;;1.55;;
17763;SDS011;22245;52.832;13.816;2023-05-07T15:40:37;2.58;;;1.77;;
17763;SDS011;22245;52.832;13.816;2023-05-07T15:44:02;3.08;;;1.50;;
17763;SDS011;22245;52.832;13.816;2023-05-07T15:47:24;2.28;;;1.50;;
17763;SDS011;22245;52.832;13.816;2023-05-07T15:50:46;4.20;;;1.48;;
17763;SDS011;22245;52.832;13.816;2023-05-07T15:54:08;3.58;;;1.63;;
17763;SDS011;22245;52.832;13.816;2023-05-07T15:57:30;3.47;;;2.30;;
17763;SDS011;22245;52.832;13.816;2023-05-07T16:00:51;2.88;;;1.60;;
17763;SDS011;22245;52.832;13.816;2023-05-07T16:04:13;3.15;;;1.70;;
17763;SDS011;22245;52.832;13.816;2023-05-07T16:07:36;3.17;;;1.63;;
17763;SDS011;22245;52.832;13.816;2023-05-07T16:10:57;2.15;;;1.65;;
17763;SDS011;22245;52.832;13.816;2023-05-07T16:14:19;3.42;;;1.83;;
17763;SDS011;22245;52.832;13.816;2023-05-07T16:17:41;2.95;;;1.50;;
17763;SDS011;22245;52.832;13.816;2023-05-07T16:21:06;1.58;;;1.30;;
17763;SDS011;22245;52.832;13.816;2023-05-07T16:24:29;3.17;;;1.65;;
17763;SDS011;22245;52.832;13.816;2023-05-07T16:27:51;2.22;;;1.50;;
17763;SDS011;22245;52.832;13.816;2023-05-07T16:31:13;1.98;;;1.45;;
17763;SDS011;22245;52.832;13.816;2023-05-07T16:34:35;2.03;;;1.77;;
17763;SDS011;22245;52.832;13.816;2023-05-07T16:37:56;1.55;;;1.40;;
17763;SDS011;22245;52.832;13.816;2023-05-07T16:41:20;2.15;;;1.50;;
17763;SDS011;22245;52.832;13.816;2023-05-07T16:44:42;3.85;;;1.80;;
17763;SDS011;22245;52.832;13.816;2023-05-07T16:48:04;1.77;;;1.50;;
17763;SDS011;22245;52.832;13.816;2023-05-07T16:51:27;2.35;;;1.90;;
17763;SDS011;22245;52.832;13.816;2023-05-07T16:54:49;3.15;;;1.60;;
17763;SDS011;22245;52.832;13.816;2023-05-07T16:58:11;1.98;;;1.50;;
17763;SDS011;22245;52.832;13.816;2023-05-07T17:01:34;2.00;;;1.80;;
17763;SDS011;22245;52.832;13.816;2023-05-07T17:04:55;2.00;;;1.80;;
17763;SDS011;22245;52.832;13.816;2023-05-07T17:08:17;2.90;;;1.38;;
17763;SDS011;22245;52.832;13.816;2023-05-07T17:11:39;3.17;;;1.77;;
17763;SDS011;22245;52.832;13.816;2023-05-07T17:15:02;2.67;;;1.70;;
17763;SDS011;22245;52.832;13.816;2023-05-07T17:18:24;2.85;;;1.90;;
17763;SDS011;22245;52.832;13.816;2023-05-07T17:21:45;2.42;;;1.80;;
17763;SDS011;22245;52.832;13.816;2023-05-07T17:25:07;4.97;;;1.90;;
17763;SDS011;22245;52.832;13.816;2023-05-07T17:28:31;2.22;;;2.00;;
17763;SDS011;22245;52.832;13.816;2023-05-07T17:31:55;3.92;;;1.80;;
17763;SDS011;22245;52.832;13.816;2023-05-07T17:35:17;2.17;;;1.67;;
17763;SDS011;22245;52.832;13.816;2023-05-07T17:38:40;2.35;;;1.90;;
17763;SDS011;22245;52.832;13.816;2023-05-07T17:42:01;3.47;;;1.77;;
17763;SDS011;22245;52.832;13.816;2023-05-07T17:45:23;2.75;;;1.60;;
17763;SDS011;22245;52.832;13.816;2023-05-07T17:48:46;3.67;;;1.83;;
17763;SDS011;22245;52.832;13.816;2023-05-07T17:52:07;3.90;;;1.90;;
17763;SDS011;22245;52.832;13.816;2023-05-07T17:55:30;4.05;;;1.88;;
17763;SDS011;22245;52.832;13.816;2023-05-07T17:58:52;4.18;;;1.90;;
17763;SDS011;22245;52.832;13.816;2023-05-07T18:02:18;2.20;;;1.88;;
17763;SDS011;22245;52.832;13.816;2023-05-07T18:05:41;3.33;;;1.95;;
17763;SDS011;22245;52.832;13.816;2023-05-07T18:09:03;2.33;;;1.67;;
17763;SDS011;22245;52.832;13.816;2023-05-07T18:12:24;3.72;;;1.88;;
17763;SDS011;22245;52.832;13.816;2023-05-07T18:15:46;3.08;;;1.98;;
17763;SDS011;22245;52.832;13.816;2023-05-07T18:19:08;2.10;;;1.90;;
17763;SDS011;22245;52.832;13.816;2023-05-07T18:22:32;2.30;;;1.83;;
17763;SDS011;22245;52.832;13.816;2023-05-07T18:25:54;3.08;;;1.70;;
17763;SDS011;22245;52.832;13.816;2023-05-07T18:29:15;2.67;;;2.00;;
17763;SDS011;22245;52.832;13.816;2023-05-07T18:32:36;3.00;;;2.20;;
17763;SDS011;22245;52.832;13.816;2023-05-07T18:35:58;5.10;;;2.40;;
17763;SDS011;22245;52.832;13.816;2023-05-07T18:39:22;2.55;;;1.80;;
17763;SDS011;22245;52.832;13.816;2023-05-07T18:42:43;2.45;;;2.08;;
17763;SDS011;22245;52.832;13.816;2023-05-07T18:46:05;4.55;;;2.10;;
17763;SDS011;22245;52.832;13.816;2023-05-07T18:49:27;2.50;;;1.90;;
17763;SDS011;22245;52.832;13.816;2023-05-07T18:52:49;2.75;;;2.10;;
17763;SDS011;22245;52.832;13.816;2023-05-07T18:56:12;3.97;;;1.95;;
17763;SDS011;22245;52.832;13.816;2023-05-07T18:59:33;2.85;;;1.92;;
17763;SDS011;22245;52.832;13.816;2023-05-07T19:02:55;2.28;;;1.70;;
17763;SDS011;22245;52.832;13.816;2023-05-07T19:06:17;2.45;;;2.00;;
17763;SDS011;22245;52.832;13.816;2023-05-07T19:09:40;4.32;;;2.05;;
17763;SDS011;22245;52.832;13.816;2023-05-07T19:13:21;3.47;;;2.67;;
17763;SDS011;22245;52.832;13.816;2023-05-07T19:16:45;3.42;;;2.15;;
17763;SDS011;22245;52.832;13.816;2023-05-07T19:20:06;2.60;;;2.40;;
17763;SDS011;22245;52.832;13.816;2023-05-07T19:23:29;7.63;;;3.15;;
17763;SDS011;22245;52.832;13.816;2023-05-07T19:26:53;2.92;;;2.50;;
17763;SDS011;22245;52.832;13.816;2023-05-07T19:30:15;3.22;;;2.17;;
17763;SDS011;22245;52.832;13.816;2023-05-07T19:33:37;5.88;;;2.80;;
17763;SDS011;22245;52.832;13.816;2023-05-07T19:36:59;4.18;;;2.25;;
17763;SDS011;22245;52.832;13.816;2023-05-07T19:40:21;4.38;;;2.60;;
17763;SDS011;22245;52.832;13.816;2023-05-07T19:43:43;3.63;;;2.40;;
17763;SDS011;22245;52.832;13.816;2023-05-07T19:47:06;4.00;;;2.03;;
17763;SDS011;22245;52.832;13.816;2023-05-07T19:50:28;5.00;;;2.22;;
17763;SDS011;22245;52.832;13.816;2023-05-07T19:53:50;3.00;;;2.60;;
17763;SDS011;22245;52.832;13.816;2023-05-07T19:57:12;2.53;;;2.30;;
17763;SDS011;22245;52.832;13.816;2023-05-07T20:00:34;3.35;;;2.42;;
17763;SDS011;22245;52.832;13.816;2023-05-07T20:03:58;4.97;;;2.70;;